Terminal Aerodrome Forecast
Issued by NWS Cleveland, OH

Home | Current Version | Previous Version | Graphics & Text | Print | Product List | Glossary Off
Versions: 1 2 3 4 5 6 7 8 9 10 11 12 13 14 15 16 17 18 19 20 21 22 23 24 25 26 27 28 29

630
FTUS41 KCLE 180924 AAB
TAFCLE
TAF AMD
KCLE 180924Z 1809/1912 25012KT 5SM -DZ BR OVC007
      TEMPO 1809/1813 3SM -RA BR OVC005
     FM181400 25010KT P6SM OVC007
     FM182300 22007KT P6SM OVC015=

USA.gov is the U.S. government's official web portal to all federal, state and local government web resources and services.